Time;durP1;ratioP1;P1;durP2;ratioP2;P2;SDS_P1;SDS_P2;PMS_P1;PMS_P2;Temp;Humidity;BMP_temperature;BMP_pressure;BME280_temperature;BME280_humidity;BME280_pressure;Samples;Min_cycle;Max_cycle;Signal;HPM_P1;HPM_P2
2022/01/31 00:01:09;;;;;;;;;;;;;;;;;;5004646;28;19960;-69
2022/01/31 00:03:35;;;;;;;;;;;;;;;;;;5006490;28;20036;-69
2022/01/31 00:06:02;;;;;;;;;;;;;;;;;;4985772;28;20399;-69
2022/01/31 00:08:28;;;;;;;;;;;;;;;;;;5007734;28;19916;-69
2022/01/31 00:10:55;;;;;;;;;;;;;;;;;;5002443;28;19913;-69
2022/01/31 00:13:44;;;;;;;;;;;;;;;;;;5005855;28;19909;-71
2022/01/31 00:16:15;;;;;;;;;;;;;;;;;;5001493;28;20347;-69
2022/01/31 00:18:41;;;;;;;;;;;;;;;;;;5009627;28;19975;-69
2022/01/31 00:21:07;;;;;;;;;;;;;;;;;;5004992;28;19917;-69
2022/01/31 00:23:35;;;;;;;;;;;;;;;;;;5005493;28;19917;-70
2022/01/31 00:26:01;;;;;;;;;;;;;;;;;;5004517;28;19921;-70
2022/01/31 00:28:29;;;;;;;;;;;;;;;;;;4988455;28;19982;-70
2022/01/31 00:30:56;;;;;;;;;;;;;;;;;;4984765;28;19920;-70
2022/01/31 00:33:22;;;;;;;;;;;;;;;;;;4990165;28;19917;-69
2022/01/31 00:35:50;;;;;;;;;;;;;;;;;;5006057;28;19917;-70
2022/01/31 00:38:16;;;;;;;;;;;;;;;;;;4987482;28;20052;-70
2022/01/31 00:40:43;;;;;;;;;;;;;;;;;;4990485;28;19909;-70
2022/01/31 00:43:13;;;;;;;;;;;;;;;;;;5002103;28;19990;-70
2022/01/31 00:45:46;;;;;;;;;;;;;;;;;;4988234;28;19943;-70
2022/01/31 00:48:18;;;;;;;;;;;;;;;;;;4987951;28;21933;-70
2022/01/31 00:50:47;;;;;;;;;;;;;;;;;;5005627;28;19917;-69
2022/01/31 00:53:15;;;;;;;;;;;;;;;;;;4966863;28;19917;-69
2022/01/31 00:55:42;;;;;;;;;;;;;;;;;;5007946;28;19913;-69
2022/01/31 00:58:09;;;;;;;;;;;;;;;;;;5003395;28;19998;-70
2022/01/31 01:00:36;;;;;;;;;;;;;;;;;;5003793;28;20260;-70
2022/01/31 01:03:02;;;;;;;;;;;;;;;;;;4987116;28;19924;-69
2022/01/31 01:05:29;;;;;;;;;;;;;;;;;;4987082;28;19913;-69
2022/01/31 01:07:56;;;;;;;;;;;;;;;;;;5001386;28;19913;-70
2022/01/31 01:10:24;;;;;;;;;;;;;;;;;;5006292;28;19913;-70
2022/01/31 01:12:54;;;;;;;;;;;;;;;;;;4987075;28;19913;-69
2022/01/31 01:15:21;;;;;;;;;;;;;;;;;;5006248;28;19916;-69
2022/01/31 01:17:48;;;;;;;;;;;;;;;;;;5003837;28;19916;-70
2022/01/31 01:20:15;;;;;;;;;;;;;;;;;;4984126;28;19967;-70
2022/01/31 01:22:41;;;;;;;;;;;;;;;;;;5003525;28;20071;-69
2022/01/31 01:25:09;;;;;;;;;;;;;;;;;;4983214;28;19928;-70
2022/01/31 01:27:37;;;;;;;;;;;;;;;;;;5004465;28;20361;-70
2022/01/31 01:30:04;;;;;;;;;;;;;;;;;;5003222;28;19948;-70
2022/01/31 01:32:35;;;;;;;;;;;;;;;;;;4988991;28;19959;-69
2022/01/31 01:35:05;;;;;;;;;;;;;;;;;;4976495;28;20426;-69
2022/01/31 01:37:32;;;;;;;;;;;;;;;;;;4989745;28;19957;-69
2022/01/31 01:39:59;;;;;;;;;;;;;;;;;;5008305;28;19917;-71
2022/01/31 01:42:26;;;;;;;;;;;;;;;;;;5016939;28;19917;-70
2022/01/31 01:45:13;;;;;;;;;;;;;;;;;;5006795;28;21313;-71
2022/01/31 01:47:41;;;;;;;;;;;;;;;;;;4995228;28;19913;-69
2022/01/31 01:50:07;;;;;;;;;;;;;;;;;;4992531;28;19941;-70
2022/01/31 01:52:33;;;;;;;;;;;;;;;;;;5011298;28;20012;-70
2022/01/31 01:54:59;;;;;;;;;;;;;;;;;;5011564;28;19913;-70
2022/01/31 01:57:25;;;;;;;;;;;;;;;;;;5011606;28;20360;-70
2022/01/31 01:59:58;;;;;;;;;;;;;;;;;;4993344;28;19952;-69
2022/01/31 02:02:25;;;;;;;;;;;;;;;;;;5008712;28;20375;-69
2022/01/31 02:04:52;;;;;;;;;;;;;;;;;;5012145;28;19913;-69
2022/01/31 02:07:19;;;;;;;;;;;;;;;;;;5014156;28;19970;-69
2022/01/31 02:09:53;;;;;;;;;;;;;;;;;;5012863;28;20383;-69
2022/01/31 02:12:19;;;;;;;;;;;;;;;;;;4967018;28;20007;-69
2022/01/31 02:14:46;;;;;;;;;;;;;;;;;;4968150;28;20232;-69
2022/01/31 02:17:12;;;;;;;;;;;;;;;;;;4979446;28;20581;-69
2022/01/31 02:19:39;;;;;;;;;;;;;;;;;;4965482;28;19923;-68
2022/01/31 02:22:05;;;;;;;;;;;;;;;;;;4979875;28;19952;-70
2022/01/31 02:24:32;;;;;;;;;;;;;;;;;;4981920;28;19913;-70
2022/01/31 02:26:58;;;;;;;;;;;;;;;;;;4978488;28;20395;-70
2022/01/31 02:29:24;;;;;;;;;;;;;;;;;;4969354;28;19913;-70
2022/01/31 02:31:50;;;;;;;;;;;;;;;;;;4983544;28;19920;-69
2022/01/31 02:34:17;;;;;;;;;;;;;;;;;;4965475;28;19917;-69
2022/01/31 02:36:45;;;;;;;;;;;;;;;;;;4986066;28;20506;-69
2022/01/31 02:39:11;;;;;;;;;;;;;;;;;;4979710;28;20210;-69
2022/01/31 02:41:37;;;;;;;;;;;;;;;;;;4984584;28;19917;-69
2022/01/31 02:44:08;;;;;;;;;;;;;;;;;;4978716;28;19924;-69
2022/01/31 02:46:35;;;;;;;;;;;;;;;;;;4984669;28;19952;-69
2022/01/31 02:49:02;;;;;;;;;;;;;;;;;;4994503;28;19917;-69
2022/01/31 02:51:31;;;;;;;;;;;;;;;;;;4996105;28;19919;-70
2022/01/31 02:53:59;;;;;;;;;;;;;;;;;;4992393;28;20682;-69
2022/01/31 02:56:26;;;;;;;;;;;;;;;;;;5012257;28;19913;-70
2022/01/31 02:58:53;;;;;;;;;;;;;;;;;;5011800;28;19940;-69
2022/01/31 03:01:20;;;;;;;;;;;;;;;;;;5012180;28;20036;-71
2022/01/31 03:03:47;;;;;;;;;;;;;;;;;;5016138;28;20375;-69
2022/01/31 03:06:14;;;;;;;;;;;;;;;;;;4996185;28;19917;-71
2022/01/31 03:08:41;;;;;;;;;;;;;;;;;;5013882;28;19955;-71
2022/01/31 03:11:08;;;;;;;;;;;;;;;;;;4997364;28;19940;-70
2022/01/31 03:13:36;;;;;;;;;;;;;;;;;;5010733;28;19992;-69
2022/01/31 03:16:03;;;;;;;;;;;;;;;;;;5013955;28;19917;-69
2022/01/31 03:18:31;;;;;;;;;;;;;;;;;;5017823;28;19932;-69
2022/01/31 03:20:58;;;;;;;;;;;;;;;;;;5013148;28;20466;-69
2022/01/31 03:23:26;;;;;;;;;;;;;;;;;;5014859;28;19943;-70
2022/01/31 03:25:52;;;;;;;;;;;;;;;;;;5012820;28;19932;-70
2022/01/31 03:28:19;;;;;;;;;;;;;;;;;;5010023;28;19956;-69
2022/01/31 03:30:46;;;;;;;;;;;;;;;;;;5016509;28;19920;-70
2022/01/31 03:33:12;;;;;;;;;;;;;;;;;;5012304;28;19920;-70
2022/01/31 03:35:38;;;;;;;;;;;;;;;;;;5017177;28;19920;-69
2022/01/31 03:38:04;;;;;;;;;;;;;;;;;;5010684;28;19913;-69
2022/01/31 03:40:31;;;;;;;;;;;;;;;;;;5015369;28;20432;-69
2022/01/31 03:42:59;;;;;;;;;;;;;;;;;;5010055;28;19921;-69
2022/01/31 03:45:25;;;;;;;;;;;;;;;;;;5013758;28;19929;-69
2022/01/31 03:47:52;;;;;;;;;;;;;;;;;;5013475;28;19917;-69
2022/01/31 03:50:20;;;;;;;;;;;;;;;;;;5012874;28;19913;-69
2022/01/31 03:52:46;;;;;;;;;;;;;;;;;;5013573;28;19913;-70
2022/01/31 03:55:13;;;;;;;;;;;;;;;;;;5011957;28;21765;-70
2022/01/31 03:57:39;;;;;;;;;;;;;;;;;;5009321;28;19940;-69
2022/01/31 04:00:06;;;;;;;;;;;;;;;;;;4999659;28;20160;-69
2022/01/31 04:02:33;;;;;;;;;;;;;;;;;;5013631;28;19921;-69
2022/01/31 04:04:59;;;;;;;;;;;;;;;;;;5011392;28;19913;-69
2022/01/31 04:07:25;;;;;;;;;;;;;;;;;;5015766;28;20239;-69
2022/01/31 04:09:51;;;;;;;;;;;;;;;;;;5011837;28;19963;-69
2022/01/31 04:12:19;;;;;;;;;;;;;;;;;;5012068;28;19913;-69
2022/01/31 04:14:45;;;;;;;;;;;;;;;;;;4997435;28;19912;-69
2022/01/31 04:17:11;;;;;;;;;;;;;;;;;;5011190;28;19924;-69
2022/01/31 04:19:42;;;;;;;;;;;;;;;;;;5015931;28;20727;-69
2022/01/31 04:22:11;;;;;;;;;;;;;;;;;;5008425;28;20032;-69
2022/01/31 04:24:41;;;;;;;;;;;;;;;;;;5015660;28;20581;-70
2022/01/31 04:27:17;;;;;;;;;;;;;;;;;;5008068;28;20493;-69
2022/01/31 04:29:48;;;;;;;;;;;;;;;;;;5011767;28;19917;-69
2022/01/31 04:32:14;;;;;;;;;;;;;;;;;;5012639;28;20003;-70
2022/01/31 04:34:41;;;;;;;;;;;;;;;;;;4994770;28;19987;-69
2022/01/31 04:37:10;;;;;;;;;;;;;;;;;;5012649;28;19913;-69
2022/01/31 04:39:41;;;;;;;;;;;;;;;;;;4961051;28;20064;-70
2022/01/31 04:42:07;;;;;;;;;;;;;;;;;;5009476;28;19916;-70
2022/01/31 04:44:33;;;;;;;;;;;;;;;;;;5013809;28;20474;-69
2022/01/31 04:47:01;;;;;;;;;;;;;;;;;;5009440;28;20010;-70
2022/01/31 04:49:29;;;;;;;;;;;;;;;;;;5013715;28;20019;-70
2022/01/31 04:51:55;;;;;;;;;;;;;;;;;;4997619;28;20015;-70
2022/01/31 04:54:21;;;;;;;;;;;;;;;;;;5013408;28;19916;-70
2022/01/31 04:56:47;;;;;;;;;;;;;;;;;;5011752;28;19920;-70
2022/01/31 04:59:14;;;;;;;;;;;;;;;;;;5010482;28;19935;-70
2022/01/31 05:01:42;;;;;;;;;;;;;;;;;;5014902;28;19918;-70
2022/01/31 05:04:10;;;;;;;;;;;;;;;;;;5013571;28;20030;-70
2022/01/31 05:06:38;;;;;;;;;;;;;;;;;;5011445;28;20025;-70
2022/01/31 05:09:07;;;;;;;;;;;;;;;;;;5010974;28;20026;-70
2022/01/31 05:11:34;;;;;;;;;;;;;;;;;;5016135;28;20028;-70
2022/01/31 05:14:04;;;;;;;;;;;;;;;;;;4974377;28;19920;-70
2022/01/31 05:16:31;;;;;;;;;;;;;;;;;;5015604;28;19920;-70
2022/01/31 05:18:58;;;;;;;;;;;;;;;;;;5007777;28;19921;-70
2022/01/31 05:21:24;;;;;;;;;;;;;;;;;;5010886;28;19988;-70
2022/01/31 05:23:50;;;;;;;;;;;;;;;;;;5015464;28;19951;-70
2022/01/31 05:26:17;;;;;;;;;;;;;;;;;;5011132;28;19917;-70
2022/01/31 05:28:43;;;;;;;;;;;;;;;;;;4995535;28;19913;-71
2022/01/31 05:31:09;;;;;;;;;;;;;;;;;;5008962;28;19997;-70
2022/01/31 05:33:37;;;;;;;;;;;;;;;;;;5010323;28;19909;-70
2022/01/31 05:36:04;;;;;;;;;;;;;;;;;;5011916;28;19912;-70
2022/01/31 05:38:34;;;;;;;;;;;;;;;;;;4996821;28;19916;-70
2022/01/31 05:41:05;;;;;;;;;;;;;;;;;;5010272;28;19920;-70
2022/01/31 05:43:33;;;;;;;;;;;;;;;;;;5013871;28;19916;-71
2022/01/31 05:46:00;;;;;;;;;;;;;;;;;;5011336;28;20003;-70
2022/01/31 05:48:27;;;;;;;;;;;;;;;;;;5010991;28;20024;-70
2022/01/31 05:50:54;;;;;;;;;;;;;;;;;;5007777;28;19952;-70
2022/01/31 05:53:21;;;;;;;;;;;;;;;;;;5013228;28;20393;-70
2022/01/31 05:56:07;;;;;;;;;;;;;;;;;;5008473;28;19913;-70
2022/01/31 05:58:34;;;;;;;;;;;;;;;;;;4993024;28;19964;-70
2022/01/31 06:01:01;;;;;;;;;;;;;;;;;;5009667;28;19913;-70
2022/01/31 06:03:27;;;;;;;;;;;;;;;;;;5012104;28;19939;-66
2022/01/31 06:05:54;;;;;;;;;;;;;;;;;;4993074;28;19913;-67
2022/01/31 06:08:23;;;;;;;;;;;;;;;;;;5013371;28;19970;-66
2022/01/31 06:10:50;;;;;;;;;;;;;;;;;;5011407;28;19920;-66
2022/01/31 06:13:23;;;;;;;;;;;;;;;;;;5008067;28;19921;-66
2022/01/31 06:15:54;;;;;;;;;;;;;;;;;;5008873;28;19975;-65
2022/01/31 06:18:40;;;;;;;;;;;;;;;;;;5010944;28;19971;-65
2022/01/31 06:21:06;;;;;;;;;;;;;;;;;;5009505;28;19913;-67
2022/01/31 06:23:32;;;;;;;;;;;;;;;;;;5010830;28;19924;-67
2022/01/31 06:25:59;;;;;;;;;;;;;;;;;;4994420;28;19951;-66
2022/01/31 06:28:25;;;;;;;;;;;;;;;;;;5013870;28;19913;-65
2022/01/31 06:30:51;;;;;;;;;;;;;;;;;;5008467;28;19948;-66
2022/01/31 06:33:17;;;;;;;;;;;;;;;;;;5014106;28;20000;-66
2022/01/31 06:35:43;;;;;;;;;;;;;;;;;;5016234;28;20452;-65
2022/01/31 06:38:11;;;;;;;;;;;;;;;;;;5012746;28;20433;-66
2022/01/31 06:40:37;;;;;;;;;;;;;;;;;;5017049;28;20051;-66
2022/01/31 06:43:04;;;;;;;;;;;;;;;;;;5010385;28;19921;-66
2022/01/31 06:45:30;;;;;;;;;;;;;;;;;;5014766;28;19924;-66
2022/01/31 06:47:57;;;;;;;;;;;;;;;;;;4995795;28;19920;-66
2022/01/31 06:50:27;;;;;;;;;;;;;;;;;;5014322;28;19913;-65
2022/01/31 06:52:56;;;;;;;;;;;;;;;;;;5014174;28;19916;-66
2022/01/31 06:55:26;;;;;;;;;;;;;;;;;;5011755;28;20447;-66
2022/01/31 06:57:53;;;;;;;;;;;;;;;;;;5013892;28;20003;-66
2022/01/31 07:00:19;;;;;;;;;;;;;;;;;;4998400;28;19971;-65
2022/01/31 07:02:47;;;;;;;;;;;;;;;;;;5015016;28;19917;-66
2022/01/31 07:05:14;;;;;;;;;;;;;;;;;;5013704;28;19917;-66
2022/01/31 07:07:42;;;;;;;;;;;;;;;;;;5014418;28;19999;-66
2022/01/31 07:10:08;;;;;;;;;;;;;;;;;;5013461;28;19936;-65
2022/01/31 07:12:38;;;;;;;;;;;;;;;;;;5013819;28;19928;-66
2022/01/31 07:15:04;;;;;;;;;;;;;;;;;;5010423;28;20102;-66
2022/01/31 07:17:31;;;;;;;;;;;;;;;;;;5017618;28;19920;-65
2022/01/31 07:19:58;;;;;;;;;;;;;;;;;;4995615;28;20379;-66
2022/01/31 07:22:33;;;;;;;;;;;;;;;;;;5017063;28;20330;-67
2022/01/31 07:25:06;;;;;;;;;;;;;;;;;;5012631;28;20324;-66
2022/01/31 07:27:34;;;;;;;;;;;;;;;;;;5010310;28;19921;-66
2022/01/31 07:30:01;;;;;;;;;;;;;;;;;;5012369;28;19913;-66
2022/01/31 07:32:27;;;;;;;;;;;;;;;;;;5017009;28;19956;-65
2022/01/31 07:34:55;;;;;;;;;;;;;;;;;;4994599;28;19953;-66
2022/01/31 07:37:21;;;;;;;;;;;;;;;;;;4978470;28;19921;-68
2022/01/31 07:39:49;;;;;;;;;;;;;;;;;;4973779;28;19917;-67
2022/01/31 07:42:15;;;;;;;;;;;;;;;;;;4952166;28;19921;-67
2022/01/31 07:44:41;;;;;;;;;;;;;;;;;;4938015;28;19940;-67
2022/01/31 07:47:07;;;;;;;;;;;;;;;;;;4949383;28;19957;-67
2022/01/31 07:49:34;;;;;;;;;;;;;;;;;;4952765;28;19962;-65
2022/01/31 07:52:02;;;;;;;;;;;;;;;;;;4948674;28;19910;-66
2022/01/31 07:54:29;;;;;;;;;;;;;;;;;;4954128;28;19925;-66
2022/01/31 07:56:57;;;;;;;;;;;;;;;;;;4909245;28;19919;-66
2022/01/31 07:59:24;;;;;;;;;;;;;;;;;;4912697;29;19918;-66
2022/01/31 08:01:51;;;;;;;;;;;;;;;;;;4914252;29;20441;-66
2022/01/31 08:04:17;;;;;;;;;;;;;;;;;;4911607;29;20646;-66
2022/01/31 08:06:43;;;;;;;;;;;;;;;;;;4912734;29;20047;-69
2022/01/31 08:09:09;;;;;;;;;;;;;;;;;;4908305;29;19926;-66
2022/01/31 08:11:37;;;;;;;;;;;;;;;;;;4911530;29;19915;-66
2022/01/31 08:14:09;;;;;;;;;;;;;;;;;;4910473;29;20389;-67
2022/01/31 08:16:41;;;;;;;;;;;;;;;;;;4913256;29;19914;-67
2022/01/31 08:19:10;;;;;;;;;;;;;;;;;;4905940;29;19987;-66
2022/01/31 08:21:36;;;;;;;;;;;;;;;;;;4900760;29;19925;-66
2022/01/31 08:24:03;;;;;;;;;;;;;;;;;;4953979;28;19952;-67
2022/01/31 08:26:29;;;;;;;;;;;;;;;;;;4995513;28;19916;-66
2022/01/31 08:29:39;;;;;;;;;;;;;;;;;;4993070;28;19913;-66
2022/01/31 08:31:47;;;;;;;;;;;;;;;;;;5004066;28;20370;-66
2022/01/31 08:36:44;;;;;;;;;;;;;;;;;;5011621;28;19952;-66
2022/01/31 08:39:11;;;;;;;;;;;;;;;;;;5010834;28;19920;-67
2022/01/31 08:41:37;;;;;;;;;;;;;;;;;;5014954;28;19990;-67
2022/01/31 08:44:04;;;;;;;;;;;;;;;;;;4991394;28;19916;-67
2022/01/31 08:46:33;;;;;;;;;;;;;;;;;;4996141;28;19924;-67
2022/01/31 08:48:59;;;;;;;;;;;;;;;;;;4990480;28;19917;-67
2022/01/31 08:51:27;;;;;;;;;;;;;;;;;;5011740;28;19913;-67
2022/01/31 08:53:57;;;;;;;;;;;;;;;;;;5011786;28;19919;-66
2022/01/31 08:56:27;;;;;;;;;;;;;;;;;;5010264;28;20708;-69
2022/01/31 08:58:56;;;;;;;;;;;;;;;;;;5010949;28;19912;-66
2022/01/31 09:01:23;;;;;;;;;;;;;;;;;;4998574;28;19991;-67
2022/01/31 09:04:01;;;;;;;;;;;;;;;;;;5011327;28;19928;-67
2022/01/31 09:06:28;;;;;;;;;;;;;;;;;;5012718;28;19924;-67
2022/01/31 09:08:57;;;;;;;;;;;;;;;;;;5008922;28;19916;-66
2022/01/31 09:11:25;;;;;;;;;;;;;;;;;;5013620;28;19931;-67
2022/01/31 09:13:51;;;;;;;;;;;;;;;;;;5014268;28;19955;-67
2022/01/31 09:16:19;;;;;;;;;;;;;;;;;;5010129;28;19925;-67
2022/01/31 09:18:46;;;;;;;;;;;;;;;;;;5012472;28;19909;-67
2022/01/31 09:21:12;;;;;;;;;;;;;;;;;;5009989;28;19924;-67
2022/01/31 09:23:41;;;;;;;;;;;;;;;;;;5012318;28;19928;-67
2022/01/31 09:26:07;;;;;;;;;;;;;;;;;;5009357;28;20393;-67
2022/01/31 09:28:35;;;;;;;;;;;;;;;;;;5008339;28;19932;-67
2022/01/31 09:31:02;;;;;;;;;;;;;;;;;;5010375;28;19917;-67
2022/01/31 09:33:30;;;;;;;;;;;;;;;;;;5011627;28;19909;-67
2022/01/31 09:35:57;;;;;;;;;;;;;;;;;;5011350;28;19948;-67
2022/01/31 09:38:25;;;;;;;;;;;;;;;;;;5013518;28;20486;-67
2022/01/31 09:40:54;;;;;;;;;;;;;;;;;;5007547;28;20485;-67
2022/01/31 09:45:59;;;;;;;;;;;;;;;;;;5014033;28;20295;-67
2022/01/31 09:48:36;;;;;;;;;;;;;;;;;;4984539;28;19917;-67
2022/01/31 09:51:02;;;;;;;;;;;;;;;;;;4980693;28;19913;-67
2022/01/31 09:53:28;;;;;;;;;;;;;;;;;;4986919;28;19921;-66
2022/01/31 09:55:55;;;;;;;;;;;;;;;;;;4979278;28;19944;-66
2022/01/31 09:58:24;;;;;;;;;;;;;;;;;;4983314;28;19949;-67
2022/01/31 10:01:01;;;;;;;;;;;;;;;;;;4980290;28;20025;-67
2022/01/31 10:03:28;;;;;;;;;;;;;;;;;;4972467;28;19928;-68
2022/01/31 10:05:54;;;;;;;;;;;;;;;;;;4983211;28;19920;-67
2022/01/31 10:08:20;;;;;;;;;;;;;;;;;;4972658;28;19913;-67
2022/01/31 10:10:48;;;;;;;;;;;;;;;;;;4989907;28;20388;-67
2022/01/31 10:18:53;;;;;;;;;;;;;;;;;;4992701;28;19974;-67
2022/01/31 10:21:20;;;;;;;;;;;;;;;;;;5010678;28;19917;-67
2022/01/31 10:24:08;;;;;;;;;;;;;;;;;;5007579;28;19960;-67
2022/01/31 10:26:44;;;;;;;;;;;;;;;;;;5011186;28;20551;-67
2022/01/31 10:29:11;;;;;;;;;;;;;;;;;;5007471;28;19921;-67
2022/01/31 10:31:38;;;;;;;;;;;;;;;;;;5006998;28;19945;-67
2022/01/31 10:34:06;;;;;;;;;;;;;;;;;;5007569;28;20529;-67
2022/01/31 10:36:32;;;;;;;;;;;;;;;;;;5010624;28;19921;-68
2022/01/31 10:38:58;;;;;;;;;;;;;;;;;;5006165;28;19913;-68
2022/01/31 10:44:56;;;;;;;;;;;;;;;;;;5015502;28;19928;-68
2022/01/31 10:52:36;;;;;;;;;;;;;;;;;;5014304;28;20026;-67
2022/01/31 10:55:02;;;;;;;;;;;;;;;;;;5015291;28;19913;-67
2022/01/31 10:57:28;;;;;;;;;;;;;;;;;;5012119;28;19917;-67
2022/01/31 10:59:55;;;;;;;;;;;;;;;;;;5014364;28;19923;-67
2022/01/31 11:02:21;;;;;;;;;;;;;;;;;;5014759;28;19948;-68
2022/01/31 11:04:50;;;;;;;;;;;;;;;;;;5013493;28;19921;-68
2022/01/31 11:07:17;;;;;;;;;;;;;;;;;;5001397;28;19992;-67
2022/01/31 11:09:45;;;;;;;;;;;;;;;;;;4992904;28;19917;-66
2022/01/31 11:12:13;;;;;;;;;;;;;;;;;;5004582;28;20057;-67
2022/01/31 11:14:40;;;;;;;;;;;;;;;;;;5007828;28;19913;-68
2022/01/31 11:17:08;;;;;;;;;;;;;;;;;;4991177;28;19913;-66
2022/01/31 11:19:36;;;;;;;;;;;;;;;;;;5012450;28;19924;-66
2022/01/31 11:22:04;;;;;;;;;;;;;;;;;;4986529;28;19956;-67
2022/01/31 11:24:32;;;;;;;;;;;;;;;;;;5001552;28;20540;-66
2022/01/31 11:27:00;;;;;;;;;;;;;;;;;;4999192;28;19913;-67
2022/01/31 11:29:26;;;;;;;;;;;;;;;;;;5005048;28;20680;-67
2022/01/31 11:31:52;;;;;;;;;;;;;;;;;;5000990;28;19920;-66
2022/01/31 11:34:19;;;;;;;;;;;;;;;;;;5003274;28;19914;-68
2022/01/31 11:36:47;;;;;;;;;;;;;;;;;;5000974;28;19964;-67
2022/01/31 11:39:13;;;;;;;;;;;;;;;;;;5001339;28;19917;-69
2022/01/31 11:41:40;;;;;;;;;;;;;;;;;;5002163;28;19913;-66
2022/01/31 11:44:06;;;;;;;;;;;;;;;;;;4999963;28;20660;-67
2022/01/31 11:46:33;;;;;;;;;;;;;;;;;;5005051;28;19913;-68
2022/01/31 11:49:01;;;;;;;;;;;;;;;;;;4999905;28;21431;-68
2022/01/31 11:51:27;;;;;;;;;;;;;;;;;;5006925;28;20003;-67
2022/01/31 11:53:55;;;;;;;;;;;;;;;;;;5001861;28;20429;-67
2022/01/31 11:56:22;;;;;;;;;;;;;;;;;;4987025;28;19917;-67
2022/01/31 11:58:48;;;;;;;;;;;;;;;;;;4987283;28;19913;-66
2022/01/31 12:01:15;;;;;;;;;;;;;;;;;;4982740;28;19917;-71
2022/01/31 12:03:43;;;;;;;;;;;;;;;;;;4989700;28;19995;-65
2022/01/31 12:06:11;;;;;;;;;;;;;;;;;;4986532;28;19944;-64
2022/01/31 12:08:41;;;;;;;;;;;;;;;;;;4976386;28;20087;-66
2022/01/31 12:11:14;;;;;;;;;;;;;;;;;;4988638;28;19913;-65
2022/01/31 12:13:45;;;;;;;;;;;;;;;;;;4991587;28;20371;-65
2022/01/31 12:16:23;;;;;;;;;;;;;;;;;;4989189;28;20019;-65
2022/01/31 12:19:15;;;;;;;;;;;;;;;;;;4992582;28;19948;-69
2022/01/31 12:22:00;;;;;;;;;;;;;;;;;;4992004;28;19921;-68
2022/01/31 12:24:29;;;;;;;;;;;;;;;;;;4988186;28;19926;-69
2022/01/31 12:27:06;;;;;;;;;;;;;;;;;;4987137;28;19913;-69
2022/01/31 12:29:32;;;;;;;;;;;;;;;;;;4993367;28;20470;-74
2022/01/31 12:31:59;;;;;;;;;;;;;;;;;;4991490;28;20008;-70
2022/01/31 12:34:28;;;;;;;;;;;;;;;;;;4993923;28;19909;-68
2022/01/31 12:36:57;;;;;;;;;;;;;;;;;;4987265;28;19952;-68
2022/01/31 12:39:24;;;;;;;;;;;;;;;;;;4992543;28;20304;-68
2022/01/31 12:42:02;;;;;;;;;;;;;;;;;;4987997;28;19917;-68
2022/01/31 12:44:31;;;;;;;;;;;;;;;;;;4996099;28;20015;-68
2022/01/31 12:46:57;;;;;;;;;;;;;;;;;;5002782;28;19968;-69
2022/01/31 12:49:24;;;;;;;;;;;;;;;;;;5016549;28;19913;-67
2022/01/31 12:51:50;;;;;;;;;;;;;;;;;;5015023;28;20783;-68
2022/01/31 12:54:18;;;;;;;;;;;;;;;;;;5012787;28;20003;-66
2022/01/31 12:56:44;;;;;;;;;;;;;;;;;;5015684;28;20488;-68
2022/01/31 12:59:10;;;;;;;;;;;;;;;;;;5011889;28;20537;-67
2022/01/31 13:01:39;;;;;;;;;;;;;;;;;;5009038;28;19914;-67
2022/01/31 13:04:08;;;;;;;;;;;;;;;;;;5001688;28;19959;-68
2022/01/31 13:06:35;;;;;;;;;;;;;;;;;;5002977;28;19919;-67
2022/01/31 13:09:03;;;;;;;;;;;;;;;;;;4999516;28;19916;-67
2022/01/31 13:11:31;;;;;;;;;;;;;;;;;;5007466;28;19912;-67
2022/01/31 13:13:59;;;;;;;;;;;;;;;;;;5002626;28;19974;-67
2022/01/31 13:16:27;;;;;;;;;;;;;;;;;;5004081;28;19913;-67
2022/01/31 13:18:55;;;;;;;;;;;;;;;;;;5005850;28;20008;-67
2022/01/31 13:21:21;;;;;;;;;;;;;;;;;;5010410;28;19917;-67
2022/01/31 13:23:50;;;;;;;;;;;;;;;;;;5004935;28;19924;-67
2022/01/31 13:26:18;;;;;;;;;;;;;;;;;;4989623;28;20002;-67
2022/01/31 13:28:44;;;;;;;;;;;;;;;;;;5006940;28;19913;-67
2022/01/31 13:31:10;;;;;;;;;;;;;;;;;;5002244;28;20015;-67
2022/01/31 13:33:36;;;;;;;;;;;;;;;;;;4992464;28;19919;-67
2022/01/31 13:36:02;;;;;;;;;;;;;;;;;;5001609;28;19957;-67
2022/01/31 13:38:29;;;;;;;;;;;;;;;;;;5004439;28;19918;-67
2022/01/31 13:40:57;;;;;;;;;;;;;;;;;;4996560;28;19916;-67
2022/01/31 13:43:27;;;;;;;;;;;;;;;;;;5003942;28;20024;-68
2022/01/31 13:46:05;;;;;;;;;;;;;;;;;;4998739;28;19909;-68
2022/01/31 13:48:36;;;;;;;;;;;;;;;;;;5004703;28;19917;-67
2022/01/31 13:51:05;;;;;;;;;;;;;;;;;;5003784;28;19956;-67
2022/01/31 13:53:36;;;;;;;;;;;;;;;;;;5004932;28;19925;-68
2022/01/31 13:56:02;;;;;;;;;;;;;;;;;;5005599;28;19971;-68
2022/01/31 13:58:28;;;;;;;;;;;;;;;;;;5010497;28;19916;-68
2022/01/31 14:00:54;;;;;;;;;;;;;;;;;;4991189;28;20295;-67
2022/01/31 14:03:21;;;;;;;;;;;;;;;;;;5010342;28;19917;-68
2022/01/31 14:05:49;;;;;;;;;;;;;;;;;;5012197;28;19913;-67
2022/01/31 14:08:16;;;;;;;;;;;;;;;;;;5005068;28;19970;-67
2022/01/31 14:10:43;;;;;;;;;;;;;;;;;;5009496;28;19920;-67
2022/01/31 14:13:09;;;;;;;;;;;;;;;;;;5009507;28;19967;-67
2022/01/31 14:15:36;;;;;;;;;;;;;;;;;;5009006;28;19962;-66
2022/01/31 14:18:02;;;;;;;;;;;;;;;;;;4992527;28;19916;-66
2022/01/31 14:20:29;;;;;;;;;;;;;;;;;;5007959;28;20354;-67
2022/01/31 14:22:57;;;;;;;;;;;;;;;;;;5006245;28;19943;-67
2022/01/31 14:25:24;;;;;;;;;;;;;;;;;;5016701;28;20027;-67
2022/01/31 14:27:50;;;;;;;;;;;;;;;;;;5010560;28;20032;-67
2022/01/31 14:30:17;;;;;;;;;;;;;;;;;;4989930;28;19909;-67
2022/01/31 14:32:45;;;;;;;;;;;;;;;;;;5005909;28;19917;-67
2022/01/31 14:35:11;;;;;;;;;;;;;;;;;;5004933;28;20065;-66
2022/01/31 14:37:38;;;;;;;;;;;;;;;;;;5011775;28;19995;-66
2022/01/31 14:40:24;;;;;;;;;;;;;;;;;;5007975;28;19964;-68
2022/01/31 14:42:57;;;;;;;;;;;;;;;;;;4967125;28;19913;-68
2022/01/31 14:48:10;;;;;;;;;;;;;;;;;;4971818;28;20071;-68
2022/01/31 14:50:37;;;;;;;;;;;;;;;;;;4969957;28;19913;-68
2022/01/31 14:53:04;;;;;;;;;;;;;;;;;;4969414;28;19910;-68
2022/01/31 14:55:30;;;;;;;;;;;;;;;;;;4970680;28;19925;-70
2022/01/31 14:57:58;;;;;;;;;;;;;;;;;;4968717;28;19941;-68
2022/01/31 15:00:25;;;;;;;;;;;;;;;;;;4974737;28;19914;-68
2022/01/31 15:02:53;;;;;;;;;;;;;;;;;;4970164;28;20009;-68
2022/01/31 15:05:20;;;;;;;;;;;;;;;;;;4973446;28;19913;-69
2022/01/31 15:07:46;;;;;;;;;;;;;;;;;;4969842;28;19940;-68
2022/01/31 15:10:14;;;;;;;;;;;;;;;;;;4955230;28;20376;-68
2022/01/31 15:12:40;;;;;;;;;;;;;;;;;;4970531;28;19920;-68
2022/01/31 15:15:08;;;;;;;;;;;;;;;;;;5002379;28;20399;-69
2022/01/31 15:17:38;;;;;;;;;;;;;;;;;;5011802;28;19919;-68
2022/01/31 15:20:09;;;;;;;;;;;;;;;;;;5002941;28;19936;-69
2022/01/31 15:22:36;;;;;;;;;;;;;;;;;;4972241;28;20003;-67
2022/01/31 15:25:03;;;;;;;;;;;;;;;;;;4973453;28;19932;-67
2022/01/31 15:27:31;;;;;;;;;;;;;;;;;;4990053;28;20390;-67
2022/01/31 15:30:02;;;;;;;;;;;;;;;;;;4985590;28;19914;-67
2022/01/31 15:32:29;;;;;;;;;;;;;;;;;;4983203;28;19913;-67
2022/01/31 15:34:57;;;;;;;;;;;;;;;;;;4973997;28;19909;-67
2022/01/31 15:37:24;;;;;;;;;;;;;;;;;;4991885;28;19913;-67
2022/01/31 15:39:50;;;;;;;;;;;;;;;;;;4978245;28;19914;-68
2022/01/31 15:42:16;;;;;;;;;;;;;;;;;;4988223;28;20031;-68
2022/01/31 15:44:54;;;;;;;;;;;;;;;;;;4992335;28;19917;-68
2022/01/31 15:47:21;;;;;;;;;;;;;;;;;;4991459;28;19913;-67
2022/01/31 15:49:47;;;;;;;;;;;;;;;;;;4990672;28;19913;-68
2022/01/31 15:52:13;;;;;;;;;;;;;;;;;;4977530;28;21203;-68
2022/01/31 15:54:40;;;;;;;;;;;;;;;;;;4988375;28;20402;-67
2022/01/31 15:57:07;;;;;;;;;;;;;;;;;;4969908;28;19914;-68
2022/01/31 15:59:34;;;;;;;;;;;;;;;;;;4982343;28;19917;-68
2022/01/31 16:02:00;;;;;;;;;;;;;;;;;;4962125;28;19925;-67
2022/01/31 16:04:28;;;;;;;;;;;;;;;;;;4960486;28;20001;-68
2022/01/31 16:06:54;;;;;;;;;;;;;;;;;;4959944;28;19914;-67
2022/01/31 16:09:20;;;;;;;;;;;;;;;;;;4966188;28;19919;-67
2022/01/31 16:11:53;;;;;;;;;;;;;;;;;;4966792;28;19924;-67
2022/01/31 16:14:28;;;;;;;;;;;;;;;;;;4979160;28;19920;-67
2022/01/31 16:16:55;;;;;;;;;;;;;;;;;;4965704;28;19921;-67
2022/01/31 16:19:21;;;;;;;;;;;;;;;;;;4968314;28;19940;-67
2022/01/31 16:21:48;;;;;;;;;;;;;;;;;;4984906;28;19920;-67
2022/01/31 16:24:15;;;;;;;;;;;;;;;;;;4979023;28;19925;-67
2022/01/31 16:26:42;;;;;;;;;;;;;;;;;;4978577;28;20070;-67
2022/01/31 16:29:08;;;;;;;;;;;;;;;;;;4977883;28;19910;-67
2022/01/31 16:31:35;;;;;;;;;;;;;;;;;;4977759;28;19913;-67
2022/01/31 16:34:05;;;;;;;;;;;;;;;;;;4969357;28;19948;-67
2022/01/31 16:36:31;;;;;;;;;;;;;;;;;;4960891;28;20115;-67
2022/01/31 16:38:57;;;;;;;;;;;;;;;;;;4960829;28;19987;-67
2022/01/31 16:41:25;;;;;;;;;;;;;;;;;;4950783;28;19914;-67
2022/01/31 16:43:52;;;;;;;;;;;;;;;;;;4963069;28;20082;-67
2022/01/31 16:46:19;;;;;;;;;;;;;;;;;;4961115;28;19913;-67
2022/01/31 16:48:45;;;;;;;;;;;;;;;;;;4961295;28;20800;-67
2022/01/31 16:51:11;;;;;;;;;;;;;;;;;;4959518;28;19914;-67
2022/01/31 16:53:39;;;;;;;;;;;;;;;;;;4987690;28;20461;-67
2022/01/31 16:56:07;;;;;;;;;;;;;;;;;;4971421;28;19924;-67
2022/01/31 16:58:34;;;;;;;;;;;;;;;;;;4981501;28;19925;-67
2022/01/31 17:01:00;;;;;;;;;;;;;;;;;;4968363;28;19913;-67
2022/01/31 17:03:28;;;;;;;;;;;;;;;;;;4968177;28;20399;-67
2022/01/31 17:05:55;;;;;;;;;;;;;;;;;;4984133;28;20081;-67
2022/01/31 17:08:24;;;;;;;;;;;;;;;;;;4986787;28;19917;-67
2022/01/31 17:10:51;;;;;;;;;;;;;;;;;;4987058;28;19917;-66
2022/01/31 17:13:19;;;;;;;;;;;;;;;;;;4983374;28;19913;-66